sensor_id;sensor_type;location;lat;lon;timestamp;temperature;humidity
5059;DHT22;2548;52.050;11.036;2023-02-26T00:02:13;-0.40;99.90
5059;DHT22;2548;52.050;11.036;2023-02-26T00:04:41;-0.40;99.90
5059;DHT22;2548;52.050;11.036;2023-02-26T00:07:10;-0.50;99.90
5059;DHT22;2548;52.050;11.036;2023-02-26T00:09:37;-0.50;99.90
5059;DHT22;2548;52.050;11.036;2023-02-26T00:12:11;-0.50;99.90
5059;DHT22;2548;52.050;11.036;2023-02-26T00:14:39;-0.50;99.90
5059;DHT22;2548;52.050;11.036;2023-02-26T00:17:32;-0.50;99.90
5059;DHT22;2548;52.050;11.036;2023-02-26T00:20:06;-0.50;99.90
5059;DHT22;2548;52.050;11.036;2023-02-26T00:22:39;-0.50;99.90
5059;DHT22;2548;52.050;11.036;2023-02-26T00:25:07;-0.50;99.90
5059;DHT22;2548;52.050;11.036;2023-02-26T00:27:36;-0.60;99.90
5059;DHT22;2548;52.050;11.036;2023-02-26T00:30:13;-0.60;99.90
5059;DHT22;2548;52.050;11.036;2023-02-26T00:32:41;-0.60;99.90
5059;DHT22;2548;52.050;11.036;2023-02-26T00:35:13;-0.70;99.90
5059;DHT22;2548;52.050;11.036;2023-02-26T00:38:07;-0.70;99.90
5059;DHT22;2548;52.050;11.036;2023-02-26T00:40:40;-0.70;99.90
5059;DHT22;2548;52.050;11.036;2023-02-26T00:43:13;-0.80;99.90
5059;DHT22;2548;52.050;11.036;2023-02-26T00:45:44;-0.80;99.90
5059;DHT22;2548;52.050;11.036;2023-02-26T00:48:21;-0.80;99.90
5059;DHT22;2548;52.050;11.036;2023-02-26T00:50:58;-0.80;99.90
5059;DHT22;2548;52.050;11.036;2023-02-26T00:53:34;-0.80;99.90
5059;DHT22;2548;52.050;11.036;2023-02-26T00:56:05;-0.80;99.90
5059;DHT22;2548;52.050;11.036;2023-02-26T00:58:32;-0.80;99.90
5059;DHT22;2548;52.050;11.036;2023-02-26T01:01:07;-0.80;99.90
5059;DHT22;2548;52.050;11.036;2023-02-26T01:03:35;-0.80;99.90
5059;DHT22;2548;52.050;11.036;2023-02-26T01:06:08;-0.80;99.90
5059;DHT22;2548;52.050;11.036;2023-02-26T01:08:44;-0.80;99.90
5059;DHT22;2548;52.050;11.036;2023-02-26T01:11:24;-0.80;99.90
5059;DHT22;2548;52.050;11.036;2023-02-26T01:13:52;-0.80;99.90
5059;DHT22;2548;52.050;11.036;2023-02-26T01:16:36;-0.80;99.90
5059;DHT22;2548;52.050;11.036;2023-02-26T01:19:14;-0.80;99.90
5059;DHT22;2548;52.050;11.036;2023-02-26T01:21:46;-0.70;99.90
5059;DHT22;2548;52.050;11.036;2023-02-26T01:24:19;-0.70;99.90
5059;DHT22;2548;52.050;11.036;2023-02-26T01:26:55;-0.70;99.90
5059;DHT22;2548;52.050;11.036;2023-02-26T01:29:26;-0.70;99.90
5059;DHT22;2548;52.050;11.036;2023-02-26T01:31:58;-0.70;99.90
5059;DHT22;2548;52.050;11.036;2023-02-26T01:34:33;-0.70;99.90
5059;DHT22;2548;52.050;11.036;2023-02-26T01:37:18;-0.60;99.90
5059;DHT22;2548;52.050;11.036;2023-02-26T01:40:02;-0.60;99.90
5059;DHT22;2548;52.050;11.036;2023-02-26T01:42:37;-0.60;99.90
5059;DHT22;2548;52.050;11.036;2023-02-26T01:45:15;-0.60;99.90
5059;DHT22;2548;52.050;11.036;2023-02-26T01:47:48;-0.60;99.90
5059;DHT22;2548;52.050;11.036;2023-02-26T01:50:20;-0.60;99.90
5059;DHT22;2548;52.050;11.036;2023-02-26T01:53:15;-0.60;99.90
5059;DHT22;2548;52.050;11.036;2023-02-26T01:55:48;-0.60;99.90
5059;DHT22;2548;52.050;11.036;2023-02-26T01:58:17;-0.60;99.90
5059;DHT22;2548;52.050;11.036;2023-02-26T02:00:47;-0.60;99.90
5059;DHT22;2548;52.050;11.036;2023-02-26T02:03:15;-0.60;99.90
5059;DHT22;2548;52.050;11.036;2023-02-26T02:05:46;-0.60;99.90
5059;DHT22;2548;52.050;11.036;2023-02-26T02:08:22;-0.60;99.90
5059;DHT22;2548;52.050;11.036;2023-02-26T02:10:51;-0.60;99.90
5059;DHT22;2548;52.050;11.036;2023-02-26T02:13:45;-0.60;99.90
5059;DHT22;2548;52.050;11.036;2023-02-26T02:16:24;-0.60;99.90
5059;DHT22;2548;52.050;11.036;2023-02-26T02:19:22;-0.70;99.90
5059;DHT22;2548;52.050;11.036;2023-02-26T02:22:14;-0.70;99.90
5059;DHT22;2548;52.050;11.036;2023-02-26T02:24:57;-0.70;99.90
5059;DHT22;2548;52.050;11.036;2023-02-26T02:27:36;-0.80;99.90
5059;DHT22;2548;52.050;11.036;2023-02-26T02:30:28;-0.80;99.90
5059;DHT22;2548;52.050;11.036;2023-02-26T02:33:00;-0.70;99.90
5059;DHT22;2548;52.050;11.036;2023-02-26T02:35:35;-0.70;99.90
5059;DHT22;2548;52.050;11.036;2023-02-26T02:38:06;-0.70;99.90
5059;DHT22;2548;52.050;11.036;2023-02-26T02:40:47;-0.70;99.90
5059;DHT22;2548;52.050;11.036;2023-02-26T02:43:23;-0.70;99.90
5059;DHT22;2548;52.050;11.036;2023-02-26T02:45:55;-0.80;99.90
5059;DHT22;2548;52.050;11.036;2023-02-26T02:48:30;-0.80;99.90
5059;DHT22;2548;52.050;11.036;2023-02-26T02:51:03;-0.80;99.90
5059;DHT22;2548;52.050;11.036;2023-02-26T02:53:36;-0.80;99.90
5059;DHT22;2548;52.050;11.036;2023-02-26T02:56:11;-0.80;99.90
5059;DHT22;2548;52.050;11.036;2023-02-26T02:58:45;-0.80;99.90
5059;DHT22;2548;52.050;11.036;2023-02-26T03:01:18;-0.70;99.90
5059;DHT22;2548;52.050;11.036;2023-02-26T03:03:53;-0.70;99.90
5059;DHT22;2548;52.050;11.036;2023-02-26T03:06:28;-0.70;99.90
5059;DHT22;2548;52.050;11.036;2023-02-26T03:08:59;-0.70;99.90
5059;DHT22;2548;52.050;11.036;2023-02-26T03:11:29;-0.70;99.90
5059;DHT22;2548;52.050;11.036;2023-02-26T03:13:57;-0.80;99.90
5059;DHT22;2548;52.050;11.036;2023-02-26T03:19:30;-0.70;99.90
5059;DHT22;2548;52.050;11.036;2023-02-26T03:22:12;-0.80;99.90
5059;DHT22;2548;52.050;11.036;2023-02-26T03:25:13;-0.80;99.90
5059;DHT22;2548;52.050;11.036;2023-02-26T03:28:01;-0.80;99.90
5059;DHT22;2548;52.050;11.036;2023-02-26T03:30:44;-0.80;99.90
5059;DHT22;2548;52.050;11.036;2023-02-26T03:33:17;-0.80;99.90
5059;DHT22;2548;52.050;11.036;2023-02-26T03:35:51;-0.80;99.90
5059;DHT22;2548;52.050;11.036;2023-02-26T03:38:28;-0.80;99.90
5059;DHT22;2548;52.050;11.036;2023-02-26T03:41:03;-0.80;99.90
5059;DHT22;2548;52.050;11.036;2023-02-26T03:43:38;-0.70;99.90
5059;DHT22;2548;52.050;11.036;2023-02-26T03:46:24;-0.70;99.90
5059;DHT22;2548;52.050;11.036;2023-02-26T03:48:55;-0.70;99.90
5059;DHT22;2548;52.050;11.036;2023-02-26T03:51:29;-0.70;99.90
5059;DHT22;2548;52.050;11.036;2023-02-26T03:54:22;-0.70;99.90
5059;DHT22;2548;52.050;11.036;2023-02-26T03:57:09;-0.70;99.90
5059;DHT22;2548;52.050;11.036;2023-02-26T03:59:58;-0.70;99.90
5059;DHT22;2548;52.050;11.036;2023-02-26T04:02:46;-0.70;99.90
5059;DHT22;2548;52.050;11.036;2023-02-26T04:05:21;-0.70;99.90
5059;DHT22;2548;52.050;11.036;2023-02-26T04:08:01;-0.70;99.90
5059;DHT22;2548;52.050;11.036;2023-02-26T04:10:34;-0.70;99.90
5059;DHT22;2548;52.050;11.036;2023-02-26T04:13:06;-0.70;99.90
5059;DHT22;2548;52.050;11.036;2023-02-26T04:15:34;-0.70;99.90
5059;DHT22;2548;52.050;11.036;2023-02-26T04:18:07;-0.70;99.90
5059;DHT22;2548;52.050;11.036;2023-02-26T04:20:35;-0.70;99.90
5059;DHT22;2548;52.050;11.036;2023-02-26T04:23:04;-0.80;99.90
5059;DHT22;2548;52.050;11.036;2023-02-26T04:25:37;-0.70;99.90
5059;DHT22;2548;52.050;11.036;2023-02-26T04:28:11;-0.60;99.90
5059;DHT22;2548;52.050;11.036;2023-02-26T04:30:39;-0.60;99.90
5059;DHT22;2548;52.050;11.036;2023-02-26T04:33:08;-0.60;99.90
5059;DHT22;2548;52.050;11.036;2023-02-26T04:35:36;-0.60;99.90
5059;DHT22;2548;52.050;11.036;2023-02-26T04:38:07;-0.60;99.90
5059;DHT22;2548;52.050;11.036;2023-02-26T04:40:35;-0.60;99.90
5059;DHT22;2548;52.050;11.036;2023-02-26T04:43:09;-0.60;99.90
5059;DHT22;2548;52.050;11.036;2023-02-26T04:45:48;-0.60;99.90
5059;DHT22;2548;52.050;11.036;2023-02-26T04:48:16;-0.60;99.90
5059;DHT22;2548;52.050;11.036;2023-02-26T04:50:46;-0.60;99.90
5059;DHT22;2548;52.050;11.036;2023-02-26T04:53:21;-0.60;99.90
5059;DHT22;2548;52.050;11.036;2023-02-26T04:55:51;-0.60;99.90
5059;DHT22;2548;52.050;11.036;2023-02-26T04:58:19;-0.50;99.90
5059;DHT22;2548;52.050;11.036;2023-02-26T05:00:52;-0.50;99.90
5059;DHT22;2548;52.050;11.036;2023-02-26T05:03:21;-0.50;99.90
5059;DHT22;2548;52.050;11.036;2023-02-26T05:05:51;-0.50;99.90
5059;DHT22;2548;52.050;11.036;2023-02-26T05:08:20;-0.50;99.90
5059;DHT22;2548;52.050;11.036;2023-02-26T05:10:56;-0.50;99.90
5059;DHT22;2548;52.050;11.036;2023-02-26T05:13:24;-0.50;99.90
5059;DHT22;2548;52.050;11.036;2023-02-26T05:15:58;-0.50;99.90
5059;DHT22;2548;52.050;11.036;2023-02-26T05:18:25;-0.50;99.90
5059;DHT22;2548;52.050;11.036;2023-02-26T05:20:56;-0.60;99.90
5059;DHT22;2548;52.050;11.036;2023-02-26T05:23:25;-0.60;99.90
5059;DHT22;2548;52.050;11.036;2023-02-26T05:25:57;-0.60;99.90
5059;DHT22;2548;52.050;11.036;2023-02-26T05:28:25;-0.60;99.90
5059;DHT22;2548;52.050;11.036;2023-02-26T05:30:55;-0.60;99.90
5059;DHT22;2548;52.050;11.036;2023-02-26T05:33:25;-0.60;99.90
5059;DHT22;2548;52.050;11.036;2023-02-26T05:35:53;-0.60;99.90
5059;DHT22;2548;52.050;11.036;2023-02-26T05:38:20;-0.60;99.90
5059;DHT22;2548;52.050;11.036;2023-02-26T05:40:55;-0.60;99.90
5059;DHT22;2548;52.050;11.036;2023-02-26T05:43:25;-0.60;99.90
5059;DHT22;2548;52.050;11.036;2023-02-26T05:45:54;-0.60;99.90
5059;DHT22;2548;52.050;11.036;2023-02-26T05:48:22;-0.70;99.90
5059;DHT22;2548;52.050;11.036;2023-02-26T05:50:50;-0.70;99.90
5059;DHT22;2548;52.050;11.036;2023-02-26T05:53:18;-0.70;99.90
5059;DHT22;2548;52.050;11.036;2023-02-26T05:55:45;-0.70;99.90
5059;DHT22;2548;52.050;11.036;2023-02-26T05:58:22;-0.70;99.90
5059;DHT22;2548;52.050;11.036;2023-02-26T06:00:52;-0.60;99.90
5059;DHT22;2548;52.050;11.036;2023-02-26T06:03:20;-0.60;99.90
5059;DHT22;2548;52.050;11.036;2023-02-26T06:05:47;-0.60;99.90
5059;DHT22;2548;52.050;11.036;2023-02-26T06:08:15;-0.60;99.90
5059;DHT22;2548;52.050;11.036;2023-02-26T06:10:42;-0.60;99.90
5059;DHT22;2548;52.050;11.036;2023-02-26T06:13:10;-0.70;99.90
5059;DHT22;2548;52.050;11.036;2023-02-26T06:15:42;-0.70;99.90
5059;DHT22;2548;52.050;11.036;2023-02-26T06:18:10;-0.70;99.90
5059;DHT22;2548;52.050;11.036;2023-02-26T06:20:41;-0.70;99.90
5059;DHT22;2548;52.050;11.036;2023-02-26T06:23:08;-0.70;99.90
5059;DHT22;2548;52.050;11.036;2023-02-26T06:25:35;-0.70;99.90
5059;DHT22;2548;52.050;11.036;2023-02-26T06:28:03;-0.70;99.90
5059;DHT22;2548;52.050;11.036;2023-02-26T06:30:41;-0.70;99.90
5059;DHT22;2548;52.050;11.036;2023-02-26T06:33:09;-0.70;99.90
5059;DHT22;2548;52.050;11.036;2023-02-26T06:35:42;-0.70;99.90
5059;DHT22;2548;52.050;11.036;2023-02-26T06:38:19;-0.70;99.90
5059;DHT22;2548;52.050;11.036;2023-02-26T06:40:49;-0.70;99.90
5059;DHT22;2548;52.050;11.036;2023-02-26T06:43:17;-0.70;99.90
5059;DHT22;2548;52.050;11.036;2023-02-26T06:45:46;-0.70;99.90
5059;DHT22;2548;52.050;11.036;2023-02-26T06:48:13;-0.70;99.90
5059;DHT22;2548;52.050;11.036;2023-02-26T06:50:41;-0.70;99.90
5059;DHT22;2548;52.050;11.036;2023-02-26T06:53:10;-0.70;99.90
5059;DHT22;2548;52.050;11.036;2023-02-26T06:55:43;-0.70;99.90
5059;DHT22;2548;52.050;11.036;2023-02-26T06:58:12;-0.80;99.90
5059;DHT22;2548;52.050;11.036;2023-02-26T07:00:39;-0.70;99.90
5059;DHT22;2548;52.050;11.036;2023-02-26T07:03:11;-0.70;99.90
5059;DHT22;2548;52.050;11.036;2023-02-26T07:05:39;-0.70;99.90
5059;DHT22;2548;52.050;11.036;2023-02-26T07:08:07;-0.70;99.90
5059;DHT22;2548;52.050;11.036;2023-02-26T07:10:41;-0.60;99.90
5059;DHT22;2548;52.050;11.036;2023-02-26T07:13:11;-0.60;99.90
5059;DHT22;2548;52.050;11.036;2023-02-26T07:15:41;-0.60;99.90
5059;DHT22;2548;52.050;11.036;2023-02-26T07:18:10;-0.50;99.90
5059;DHT22;2548;52.050;11.036;2023-02-26T07:20:37;-0.50;99.90
5059;DHT22;2548;52.050;11.036;2023-02-26T07:23:08;-0.40;99.90
5059;DHT22;2548;52.050;11.036;2023-02-26T07:25:35;-0.40;99.90
5059;DHT22;2548;52.050;11.036;2023-02-26T07:28:04;-0.30;99.90
5059;DHT22;2548;52.050;11.036;2023-02-26T07:30:31;-0.30;99.90
5059;DHT22;2548;52.050;11.036;2023-02-26T07:33:02;-0.20;99.90
5059;DHT22;2548;52.050;11.036;2023-02-26T07:35:34;-0.10;99.90
5059;DHT22;2548;52.050;11.036;2023-02-26T07:38:04;-0.10;99.90
5059;DHT22;2548;52.050;11.036;2023-02-26T07:40:32;0.00;99.90
5059;DHT22;2548;52.050;11.036;2023-02-26T07:43:00;0.10;99.90
5059;DHT22;2548;52.050;11.036;2023-02-26T07:45:28;0.10;99.90
5059;DHT22;2548;52.050;11.036;2023-02-26T07:47:58;0.10;99.90
5059;DHT22;2548;52.050;11.036;2023-02-26T07:50:25;0.20;99.90
5059;DHT22;2548;52.050;11.036;2023-02-26T07:53:03;0.20;99.90
5059;DHT22;2548;52.050;11.036;2023-02-26T07:55:34;0.30;99.90
5059;DHT22;2548;52.050;11.036;2023-02-26T07:58:01;0.30;99.90
5059;DHT22;2548;52.050;11.036;2023-02-26T08:00:29;0.40;99.90
5059;DHT22;2548;52.050;11.036;2023-02-26T08:03:05;0.40;99.90
5059;DHT22;2548;52.050;11.036;2023-02-26T08:05:32;0.50;99.90
5059;DHT22;2548;52.050;11.036;2023-02-26T08:08:00;0.50;99.90
5059;DHT22;2548;52.050;11.036;2023-02-26T08:10:29;0.60;99.90
5059;DHT22;2548;52.050;11.036;2023-02-26T08:12:57;0.70;99.90
5059;DHT22;2548;52.050;11.036;2023-02-26T08:15:24;0.80;99.90
5059;DHT22;2548;52.050;11.036;2023-02-26T08:17:52;0.90;99.90
5059;DHT22;2548;52.050;11.036;2023-02-26T08:20:20;0.90;99.90
5059;DHT22;2548;52.050;11.036;2023-02-26T08:22:53;1.00;99.90
5059;DHT22;2548;52.050;11.036;2023-02-26T08:25:21;1.10;99.90
5059;DHT22;2548;52.050;11.036;2023-02-26T08:27:50;1.10;99.90
5059;DHT22;2548;52.050;11.036;2023-02-26T08:30:18;1.20;99.90
5059;DHT22;2548;52.050;11.036;2023-02-26T08:32:48;1.20;99.90
5059;DHT22;2548;52.050;11.036;2023-02-26T08:35:16;1.20;99.90
5059;DHT22;2548;52.050;11.036;2023-02-26T08:37:44;1.30;99.90
5059;DHT22;2548;52.050;11.036;2023-02-26T08:40:12;1.20;99.90
5059;DHT22;2548;52.050;11.036;2023-02-26T08:42:40;1.20;99.90
5059;DHT22;2548;52.050;11.036;2023-02-26T08:45:09;1.20;99.90
5059;DHT22;2548;52.050;11.036;2023-02-26T08:47:37;1.30;99.90
5059;DHT22;2548;52.050;11.036;2023-02-26T08:50:09;1.30;99.90
5059;DHT22;2548;52.050;11.036;2023-02-26T08:52:37;1.30;99.90
5059;DHT22;2548;52.050;11.036;2023-02-26T08:55:06;1.30;99.90
5059;DHT22;2548;52.050;11.036;2023-02-26T08:57:33;1.30;99.90
5059;DHT22;2548;52.050;11.036;2023-02-26T09:00:01;1.20;99.90
5059;DHT22;2548;52.050;11.036;2023-02-26T09:02:31;1.20;99.90
5059;DHT22;2548;52.050;11.036;2023-02-26T09:04:59;1.20;99.90
5059;DHT22;2548;52.050;11.036;2023-02-26T09:07:26;1.20;99.90
5059;DHT22;2548;52.050;11.036;2023-02-26T09:09:54;1.20;99.90
5059;DHT22;2548;52.050;11.036;2023-02-26T09:12:21;1.10;99.90
5059;DHT22;2548;52.050;11.036;2023-02-26T09:14:49;1.10;99.90
5059;DHT22;2548;52.050;11.036;2023-02-26T09:17:16;1.10;99.90
5059;DHT22;2548;52.050;11.036;2023-02-26T09:19:45;1.20;99.90
5059;DHT22;2548;52.050;11.036;2023-02-26T09:22:13;1.40;99.90
5059;DHT22;2548;52.050;11.036;2023-02-26T09:24:40;1.50;99.90
5059;DHT22;2548;52.050;11.036;2023-02-26T09:27:08;1.60;99.90
5059;DHT22;2548;52.050;11.036;2023-02-26T09:29:35;1.70;99.90
5059;DHT22;2548;52.050;11.036;2023-02-26T09:32:03;1.80;99.90
5059;DHT22;2548;52.050;11.036;2023-02-26T09:34:33;1.70;99.90
5059;DHT22;2548;52.050;11.036;2023-02-26T09:37:03;1.70;99.90
5059;DHT22;2548;52.050;11.036;2023-02-26T09:39:31;1.90;99.90
5059;DHT22;2548;52.050;11.036;2023-02-26T09:42:05;2.10;99.90
5059;DHT22;2548;52.050;11.036;2023-02-26T09:44:36;2.30;99.90
5059;DHT22;2548;52.050;11.036;2023-02-26T09:47:09;2.40;99.90
5059;DHT22;2548;52.050;11.036;2023-02-26T09:49:46;2.40;99.90
5059;DHT22;2548;52.050;11.036;2023-02-26T09:52:21;2.50;99.90
5059;DHT22;2548;52.050;11.036;2023-02-26T09:54:52;2.30;99.90
5059;DHT22;2548;52.050;11.036;2023-02-26T09:57:25;2.00;99.90
5059;DHT22;2548;52.050;11.036;2023-02-26T09:59:54;1.90;99.90
5059;DHT22;2548;52.050;11.036;2023-02-26T10:02:27;1.90;99.90
5059;DHT22;2548;52.050;11.036;2023-02-26T10:05:07;2.00;99.90
5059;DHT22;2548;52.050;11.036;2023-02-26T10:07:44;2.10;99.90
5059;DHT22;2548;52.050;11.036;2023-02-26T10:10:19;2.30;99.90
5059;DHT22;2548;52.050;11.036;2023-02-26T10:12:49;2.30;99.90
5059;DHT22;2548;52.050;11.036;2023-02-26T10:15:20;2.50;99.90
5059;DHT22;2548;52.050;11.036;2023-02-26T10:17:59;2.70;99.90
5059;DHT22;2548;52.050;11.036;2023-02-26T10:20:31;2.90;99.90
5059;DHT22;2548;52.050;11.036;2023-02-26T10:23:11;2.90;99.90
5059;DHT22;2548;52.050;11.036;2023-02-26T10:25:46;2.90;99.90
5059;DHT22;2548;52.050;11.036;2023-02-26T10:28:27;2.90;99.90
5059;DHT22;2548;52.050;11.036;2023-02-26T10:31:02;2.90;99.90
5059;DHT22;2548;52.050;11.036;2023-02-26T10:33:37;3.00;99.90
5059;DHT22;2548;52.050;11.036;2023-02-26T10:36:13;3.10;99.90
5059;DHT22;2548;52.050;11.036;2023-02-26T10:39:00;3.10;99.90
5059;DHT22;2548;52.050;11.036;2023-02-26T10:41:30;3.20;99.90
5059;DHT22;2548;52.050;11.036;2023-02-26T10:44:05;3.30;99.90
5059;DHT22;2548;52.050;11.036;2023-02-26T10:46:42;3.30;99.90
5059;DHT22;2548;52.050;11.036;2023-02-26T10:52:17;3.30;99.90
5059;DHT22;2548;52.050;11.036;2023-02-26T10:55:04;3.40;99.90
5059;DHT22;2548;52.050;11.036;2023-02-26T10:57:36;3.50;99.90
5059;DHT22;2548;52.050;11.036;2023-02-26T11:00:05;3.70;99.90
5059;DHT22;2548;52.050;11.036;2023-02-26T11:02:38;3.70;99.90
5059;DHT22;2548;52.050;11.036;2023-02-26T11:05:15;3.70;99.90
5059;DHT22;2548;52.050;11.036;2023-02-26T11:07:47;3.60;99.90
5059;DHT22;2548;52.050;11.036;2023-02-26T11:10:21;3.80;99.90
5059;DHT22;2548;52.050;11.036;2023-02-26T11:12:52;3.60;99.90
5059;DHT22;2548;52.050;11.036;2023-02-26T11:15:22;3.60;99.90
5059;DHT22;2548;52.050;11.036;2023-02-26T11:17:53;3.70;99.90
5059;DHT22;2548;52.050;11.036;2023-02-26T11:20:29;3.60;99.90
5059;DHT22;2548;52.050;11.036;2023-02-26T11:22:58;3.70;99.90
5059;DHT22;2548;52.050;11.036;2023-02-26T11:25:30;3.80;99.90
5059;DHT22;2548;52.050;11.036;2023-02-26T11:30:29;3.70;99.90
5059;DHT22;2548;52.050;11.036;2023-02-26T11:33:03;3.60;99.90
5059;DHT22;2548;52.050;11.036;2023-02-26T11:35:31;3.70;99.90
5059;DHT22;2548;52.050;11.036;2023-02-26T11:38:00;3.80;99.90
5059;DHT22;2548;52.050;11.036;2023-02-26T11:40:36;3.90;99.90
5059;DHT22;2548;52.050;11.036;2023-02-26T11:43:13;3.90;99.90
5059;DHT22;2548;52.050;11.036;2023-02-26T11:45:44;3.90;99.90
5059;DHT22;2548;52.050;11.036;2023-02-26T11:48:15;4.00;99.90
5059;DHT22;2548;52.050;11.036;2023-02-26T11:50:48;4.10;99.90
5059;DHT22;2548;52.050;11.036;2023-02-26T11:53:23;4.20;99.90
5059;DHT22;2548;52.050;11.036;2023-02-26T11:56:03;4.30;99.90
5059;DHT22;2548;52.050;11.036;2023-02-26T11:58:39;4.50;99.90
5059;DHT22;2548;52.050;11.036;2023-02-26T12:01:10;4.50;99.90
5059;DHT22;2548;52.050;11.036;2023-02-26T12:03:43;4.50;99.90
5059;DHT22;2548;52.050;11.036;2023-02-26T12:06:16;4.60;99.90
5059;DHT22;2548;52.050;11.036;2023-02-26T12:08:44;4.60;99.90
5059;DHT22;2548;52.050;11.036;2023-02-26T12:14:32;4.50;99.90
5059;DHT22;2548;52.050;11.036;2023-02-26T12:17:14;4.50;99.90
5059;DHT22;2548;52.050;11.036;2023-02-26T12:19:58;4.30;99.90
5059;DHT22;2548;52.050;11.036;2023-02-26T12:22:47;4.00;99.90
5059;DHT22;2548;52.050;11.036;2023-02-26T12:25:35;3.90;99.90
5059;DHT22;2548;52.050;11.036;2023-02-26T12:28:41;4.10;99.90
5059;DHT22;2548;52.050;11.036;2023-02-26T12:34:47;4.30;99.90
5059;DHT22;2548;52.050;11.036;2023-02-26T12:37:43;4.60;99.90
5059;DHT22;2548;52.050;11.036;2023-02-26T12:40:42;4.60;99.90
5059;DHT22;2548;52.050;11.036;2023-02-26T12:43:17;4.30;99.90
5059;DHT22;2548;52.050;11.036;2023-02-26T12:45:52;4.30;99.90
5059;DHT22;2548;52.050;11.036;2023-02-26T12:48:47;4.40;99.90
5059;DHT22;2548;52.050;11.036;2023-02-26T12:51:28;4.60;99.90
5059;DHT22;2548;52.050;11.036;2023-02-26T12:54:13;4.70;99.90
5059;DHT22;2548;52.050;11.036;2023-02-26T13:00:03;4.60;99.90
5059;DHT22;2548;52.050;11.036;2023-02-26T13:03:18;4.30;99.90
5059;DHT22;2548;52.050;11.036;2023-02-26T13:06:13;4.20;99.90
5059;DHT22;2548;52.050;11.036;2023-02-26T13:08:54;4.10;99.90
5059;DHT22;2548;52.050;11.036;2023-02-26T13:11:34;4.10;99.90
5059;DHT22;2548;52.050;11.036;2023-02-26T13:17:08;3.80;99.90
5059;DHT22;2548;52.050;11.036;2023-02-26T13:19:44;3.80;99.90
5059;DHT22;2548;52.050;11.036;2023-02-26T13:22:20;4.10;99.90
5059;DHT22;2548;52.050;11.036;2023-02-26T13:24:56;4.40;99.90
5059;DHT22;2548;52.050;11.036;2023-02-26T13:27:33;4.60;99.90
5059;DHT22;2548;52.050;11.036;2023-02-26T13:32:58;3.90;99.90
5059;DHT22;2548;52.050;11.036;2023-02-26T13:35:30;3.80;99.90
5059;DHT22;2548;52.050;11.036;2023-02-26T13:38:01;3.60;99.90
5059;DHT22;2548;52.050;11.036;2023-02-26T13:40:42;3.50;99.90
5059;DHT22;2548;52.050;11.036;2023-02-26T13:43:30;3.70;99.90
5059;DHT22;2548;52.050;11.036;2023-02-26T13:46:11;4.00;99.90
5059;DHT22;2548;52.050;11.036;2023-02-26T13:48:49;4.20;99.90
5059;DHT22;2548;52.050;11.036;2023-02-26T13:51:28;4.50;99.90
5059;DHT22;2548;52.050;11.036;2023-02-26T13:54:01;4.50;99.90
5059;DHT22;2548;52.050;11.036;2023-02-26T13:57:05;4.40;99.90
5059;DHT22;2548;52.050;11.036;2023-02-26T13:59:45;4.20;99.90
5059;DHT22;2548;52.050;11.036;2023-02-26T14:02:50;4.00;99.90
5059;DHT22;2548;52.050;11.036;2023-02-26T14:05:31;3.80;99.90
5059;DHT22;2548;52.050;11.036;2023-02-26T14:08:37;3.80;99.90
5059;DHT22;2548;52.050;11.036;2023-02-26T14:14:23;3.90;99.90
5059;DHT22;2548;52.050;11.036;2023-02-26T14:19:42;3.80;99.90
5059;DHT22;2548;52.050;11.036;2023-02-26T14:22:18;3.70;99.90
5059;DHT22;2548;52.050;11.036;2023-02-26T14:24:57;3.60;99.90
5059;DHT22;2548;52.050;11.036;2023-02-26T14:27:37;3.60;99.90
5059;DHT22;2548;52.050;11.036;2023-02-26T14:30:18;3.90;99.90
5059;DHT22;2548;52.050;11.036;2023-02-26T14:33:05;4.30;99.90
5059;DHT22;2548;52.050;11.036;2023-02-26T14:35:35;4.30;99.90
5059;DHT22;2548;52.050;11.036;2023-02-26T14:38:17;4.40;99.90
5059;DHT22;2548;52.050;11.036;2023-02-26T14:41:08;4.40;99.90
5059;DHT22;2548;52.050;11.036;2023-02-26T14:43:44;4.30;99.90
5059;DHT22;2548;52.050;11.036;2023-02-26T14:46:13;4.20;99.90
5059;DHT22;2548;52.050;11.036;2023-02-26T14:48:41;4.10;99.90
5059;DHT22;2548;52.050;11.036;2023-02-26T14:51:17;4.10;99.90
5059;DHT22;2548;52.050;11.036;2023-02-26T14:54:00;4.20;99.90
5059;DHT22;2548;52.050;11.036;2023-02-26T14:56:43;4.40;99.90
5059;DHT22;2548;52.050;11.036;2023-02-26T14:59:26;4.40;99.90
5059;DHT22;2548;52.050;11.036;2023-02-26T15:02:14;4.30;99.90
5059;DHT22;2548;52.050;11.036;2023-02-26T15:05:19;4.10;99.90
5059;DHT22;2548;52.050;11.036;2023-02-26T15:13:46;3.80;99.90
5059;DHT22;2548;52.050;11.036;2023-02-26T15:16:43;3.60;99.90
5059;DHT22;2548;52.050;11.036;2023-02-26T15:19:32;3.50;99.90
5059;DHT22;2548;52.050;11.036;2023-02-26T15:22:28;3.50;99.90
5059;DHT22;2548;52.050;11.036;2023-02-26T15:25:01;3.40;99.90
5059;DHT22;2548;52.050;11.036;2023-02-26T15:27:30;3.30;99.90
5059;DHT22;2548;52.050;11.036;2023-02-26T15:30:00;3.30;99.90
5059;DHT22;2548;52.050;11.036;2023-02-26T15:32:29;3.30;99.90
5059;DHT22;2548;52.050;11.036;2023-02-26T15:35:13;3.30;99.90
5059;DHT22;2548;52.050;11.036;2023-02-26T15:37:42;3.20;99.90
5059;DHT22;2548;52.050;11.036;2023-02-26T15:40:13;3.20;99.90
5059;DHT22;2548;52.050;11.036;2023-02-26T15:42:42;3.10;99.90
5059;DHT22;2548;52.050;11.036;2023-02-26T15:45:16;3.10;99.90
5059;DHT22;2548;52.050;11.036;2023-02-26T15:47:50;3.00;99.90
5059;DHT22;2548;52.050;11.036;2023-02-26T15:50:20;3.00;99.90
5059;DHT22;2548;52.050;11.036;2023-02-26T15:52:51;3.00;99.90
5059;DHT22;2548;52.050;11.036;2023-02-26T15:55:21;2.90;99.90
5059;DHT22;2548;52.050;11.036;2023-02-26T15:57:49;2.90;99.90
5059;DHT22;2548;52.050;11.036;2023-02-26T16:00:20;2.90;99.90
5059;DHT22;2548;52.050;11.036;2023-02-26T16:02:52;2.80;99.90
5059;DHT22;2548;52.050;11.036;2023-02-26T16:05:23;2.70;99.90
5059;DHT22;2548;52.050;11.036;2023-02-26T16:07:52;2.70;99.90
5059;DHT22;2548;52.050;11.036;2023-02-26T16:10:27;2.60;99.90
5059;DHT22;2548;52.050;11.036;2023-02-26T16:12:56;2.50;99.90
5059;DHT22;2548;52.050;11.036;2023-02-26T16:15:30;2.40;99.90
5059;DHT22;2548;52.050;11.036;2023-02-26T16:17:59;2.40;99.90
5059;DHT22;2548;52.050;11.036;2023-02-26T16:20:31;2.30;99.90
5059;DHT22;2548;52.050;11.036;2023-02-26T16:23:05;2.30;99.90
5059;DHT22;2548;52.050;11.036;2023-02-26T16:25:36;2.20;99.90
5059;DHT22;2548;52.050;11.036;2023-02-26T16:28:09;2.20;99.90
5059;DHT22;2548;52.050;11.036;2023-02-26T16:30:43;2.20;99.90
5059;DHT22;2548;52.050;11.036;2023-02-26T16:33:15;2.10;99.90
5059;DHT22;2548;52.050;11.036;2023-02-26T16:35:46;2.10;99.90
5059;DHT22;2548;52.050;11.036;2023-02-26T16:38:25;2.10;99.90
5059;DHT22;2548;52.050;11.036;2023-02-26T16:41:00;1.90;99.90
5059;DHT22;2548;52.050;11.036;2023-02-26T16:43:40;1.80;99.90
5059;DHT22;2548;52.050;11.036;2023-02-26T16:46:14;1.70;99.90
5059;DHT22;2548;52.050;11.036;2023-02-26T16:48:47;1.60;99.90
5059;DHT22;2548;52.050;11.036;2023-02-26T16:51:26;1.60;99.90
5059;DHT22;2548;52.050;11.036;2023-02-26T16:54:00;1.50;99.90
5059;DHT22;2548;52.050;11.036;2023-02-26T16:56:32;1.40;99.90
5059;DHT22;2548;52.050;11.036;2023-02-26T16:59:12;1.40;99.90
5059;DHT22;2548;52.050;11.036;2023-02-26T17:01:49;1.30;99.90
5059;DHT22;2548;52.050;11.036;2023-02-26T17:04:21;1.20;99.90
5059;DHT22;2548;52.050;11.036;2023-02-26T17:06:50;1.10;99.90
5059;DHT22;2548;52.050;11.036;2023-02-26T17:09:38;1.00;99.90
5059;DHT22;2548;52.050;11.036;2023-02-26T17:12:13;0.80;99.90
5059;DHT22;2548;52.050;11.036;2023-02-26T17:14:43;0.80;99.90
5059;DHT22;2548;52.050;11.036;2023-02-26T17:17:13;0.70;99.90